IBE1286 EICK-LJLJ
Flight info
| Callsign | IBE1286 |
|---|---|
| Flight time | 2h 17m |
| Altitude | 39000 |
| Route | VAPAL1S VAPAL DCT BANBA DCT DIQSE DCT ICOSA DCT RUHUN DCT ZESPE DCT YORQI DCT UNZIB DCT NUCHU L607 BIG UL9 KONAN DCT KOK DCT DENOX DCT REMBA UL607 SPI DCT ULNOK DCT VIBOM DCT NOMBO DCT RIDAR DCT LATLO DCT OBEDI DCT KOMHO KOMHO1R |
| Aircraft | A346/H-SDE2E3FGHIJ3J4J5M1RWXY/LB1D1 |
Departure
| Time | 2026-04-24 19:27 |
|---|---|
| Airport | Cork International Airport (EICK) |
Arrival
| Time | 2026-04-24 21:45 |
|---|---|
| Airport | Ljubljana Jože Pučnik Airport (LJLJ) |
| Time | Latitude | Longitude | Altitude | Speed | Heading |
|---|---|---|---|---|---|
| 2026-04-24 19:03 | 51.85198 | -8.49249 | 511 ft | 0 kts | 69° |
| 2026-04-24 19:19 | 51.85197 | -8.49257 | 511 ft | 2 kts | 70° |
| 2026-04-24 19:19 | 51.85190 | -8.49287 | 511 ft | 3 kts | 70° |
| 2026-04-24 19:19 | 51.85183 | -8.49317 | 511 ft | 3 kts | 70° |
| 2026-04-24 19:19 | 51.85177 | -8.49344 | 511 ft | 2 kts | 69° |
| 2026-04-24 19:20 | 51.85169 | -8.49370 | 511 ft | 3 kts | 52° |
| 2026-04-24 19:20 | 51.85158 | -8.49387 | 511 ft | 3 kts | 27° |
| 2026-04-24 19:20 | 51.85146 | -8.49393 | 511 ft | 3 kts | 358° |
| 2026-04-24 19:20 | 51.85128 | -8.49387 | 511 ft | 3 kts | 343° |
| 2026-04-24 19:21 | 51.85110 | -8.49379 | 511 ft | 2 kts | 347° |
| 2026-04-24 19:21 | 51.85106 | -8.49378 | 511 ft | 0 kts | 348° |
| 2026-04-24 19:24 | 51.85107 | -8.49378 | 511 ft | 0 kts | 348° |
| 2026-04-24 19:25 | 51.85112 | -8.49380 | 511 ft | 2 kts | 342° |
| 2026-04-24 19:25 | 51.85140 | -8.49400 | 511 ft | 4 kts | 320° |
| 2026-04-24 19:26 | 51.85137 | -8.49458 | 508 ft | 4 kts | 238° |
| 2026-04-24 19:26 | 51.85108 | -8.49499 | 504 ft | 9 kts | 212° |
| 2026-04-24 19:26 | 51.85043 | -8.49557 | 492 ft | 10 kts | 207° |
| 2026-04-24 19:26 | 51.84998 | -8.49601 | 488 ft | 8 kts | 202° |
| 2026-04-24 19:27 | 51.84898 | -8.49560 | 492 ft | 38 kts | 159° |
| 2026-04-24 19:27 | 51.84386 | -8.49257 | 487 ft | 116 kts | 161° |
| 2026-04-24 19:27 | 51.83432 | -8.48688 | 548 ft | 171 kts | 155° |
| 2026-04-24 19:27 | 51.82303 | -8.47998 | 1324 ft | 174 kts | 158° |
| 2026-04-24 19:28 | 51.81145 | -8.47412 | 2232 ft | 174 kts | 160° |
| 2026-04-24 19:28 | 51.80031 | -8.46754 | 3093 ft | 167 kts | 142° |
| 2026-04-24 19:28 | 51.79473 | -8.45182 | 3789 ft | 172 kts | 95° |
| 2026-04-24 19:28 | 51.79837 | -8.43228 | 4290 ft | 193 kts | 71° |
| 2026-04-24 19:29 | 51.80609 | -8.38785 | 5278 ft | 221 kts | 82° |
| 2026-04-24 19:29 | 51.80913 | -8.36277 | 5716 ft | 240 kts | 82° |
| 2026-04-24 19:29 | 51.81257 | -8.33471 | 6235 ft | 261 kts | 81° |
| 2026-04-24 19:30 | 51.81627 | -8.30552 | 6929 ft | 272 kts | 81° |
| 2026-04-24 19:30 | 51.82020 | -8.27526 | 7821 ft | 277 kts | 81° |
| 2026-04-24 19:30 | 51.82421 | -8.24457 | 8752 ft | 280 kts | 81° |
| 2026-04-24 19:30 | 51.82829 | -8.21341 | 9644 ft | 285 kts | 81° |
| 2026-04-24 19:31 | 51.83245 | -8.18169 | 10542 ft | 290 kts | 81° |
| 2026-04-24 19:31 | 51.83670 | -8.14905 | 11204 ft | 305 kts | 81° |
| 2026-04-24 19:31 | 51.84117 | -8.11451 | 11801 ft | 319 kts | 81° |
| 2026-04-24 19:31 | 51.84584 | -8.07848 | 12363 ft | 335 kts | 81° |
| 2026-04-24 19:32 | 51.85073 | -8.04047 | 12822 ft | 354 kts | 81° |
| 2026-04-24 19:32 | 51.85579 | -8.00116 | 13349 ft | 367 kts | 81° |
| 2026-04-24 19:32 | 51.86112 | -7.95979 | 14163 ft | 373 kts | 81° |
| 2026-04-24 19:32 | 51.86649 | -7.91810 | 15020 ft | 377 kts | 81° |
| 2026-04-24 19:33 | 51.87188 | -7.87610 | 15809 ft | 382 kts | 81° |
| 2026-04-24 19:33 | 51.87696 | -7.83348 | 16560 ft | 387 kts | 83° |
| 2026-04-24 19:33 | 51.88053 | -7.78990 | 17311 ft | 391 kts | 86° |
| 2026-04-24 19:33 | 51.88304 | -7.74566 | 18042 ft | 396 kts | 87° |
| 2026-04-24 19:34 | 51.88542 | -7.70092 | 18747 ft | 401 kts | 87° |
| 2026-04-24 19:34 | 51.88780 | -7.65549 | 19430 ft | 407 kts | 87° |
| 2026-04-24 19:34 | 51.89014 | -7.61014 | 20087 ft | 412 kts | 88° |
| 2026-04-24 19:34 | 51.89255 | -7.56355 | 20742 ft | 417 kts | 88° |
| 2026-04-24 19:35 | 51.89496 | -7.51647 | 21392 ft | 421 kts | 88° |
| 2026-04-24 19:35 | 51.89738 | -7.46876 | 22019 ft | 426 kts | 88° |
| 2026-04-24 19:35 | 51.89981 | -7.42051 | 22629 ft | 431 kts | 88° |
| 2026-04-24 19:35 | 51.90225 | -7.37174 | 23240 ft | 436 kts | 88° |
| 2026-04-24 19:36 | 51.90468 | -7.32246 | 23849 ft | 440 kts | 88° |
| 2026-04-24 19:36 | 51.90713 | -7.27274 | 24426 ft | 444 kts | 88° |
| 2026-04-24 19:36 | 51.90956 | -7.22255 | 24984 ft | 448 kts | 88° |
| 2026-04-24 19:36 | 51.91200 | -7.17187 | 25556 ft | 452 kts | 88° |
| 2026-04-24 19:37 | 51.91444 | -7.12078 | 26107 ft | 456 kts | 88° |
| 2026-04-24 19:37 | 51.91685 | -7.06992 | 26640 ft | 460 kts | 88° |
| 2026-04-24 19:37 | 51.91928 | -7.01795 | 27166 ft | 463 kts | 88° |
| 2026-04-24 19:37 | 51.92172 | -6.96547 | 27674 ft | 467 kts | 88° |
| 2026-04-24 19:38 | 51.92415 | -6.91272 | 28156 ft | 471 kts | 88° |
| 2026-04-24 19:38 | 51.92657 | -6.85937 | 28643 ft | 474 kts | 88° |
| 2026-04-24 19:38 | 51.92900 | -6.80574 | 29118 ft | 478 kts | 88° |
| 2026-04-24 19:38 | 51.93141 | -6.75175 | 29578 ft | 481 kts | 88° |
| 2026-04-24 19:39 | 51.93380 | -6.69743 | 30082 ft | 483 kts | 88° |
| 2026-04-24 19:39 | 51.93615 | -6.64375 | 30719 ft | 481 kts | 88° |
| 2026-04-24 19:39 | 51.93850 | -6.58961 | 31378 ft | 479 kts | 88° |
| 2026-04-24 19:39 | 51.94080 | -6.53572 | 31986 ft | 478 kts | 88° |
| 2026-04-24 19:40 | 51.94306 | -6.48192 | 32556 ft | 477 kts | 87° |
| 2026-04-24 19:40 | 51.94529 | -6.42826 | 33124 ft | 475 kts | 87° |
| 2026-04-24 19:40 | 51.94749 | -6.37471 | 33671 ft | 474 kts | 88° |
| 2026-04-24 19:40 | 51.94849 | -6.32134 | 34195 ft | 473 kts | 91° |
| 2026-04-24 19:41 | 51.94760 | -6.26801 | 34704 ft | 471 kts | 95° |
| 2026-04-24 19:41 | 51.94479 | -6.21521 | 35214 ft | 469 kts | 98° |
| 2026-04-24 19:41 | 51.94190 | -6.18050 | 35540 ft | 467 kts | 101° |
| 2026-04-24 19:41 | 51.93597 | -6.12855 | 36003 ft | 466 kts | 104° |
| 2026-04-24 19:42 | 51.92846 | -6.07753 | 36436 ft | 464 kts | 106° |
| 2026-04-24 19:42 | 51.92062 | -6.02683 | 36841 ft | 464 kts | 106° |
| 2026-04-24 19:42 | 51.91022 | -5.95985 | 37399 ft | 461 kts | 106° |
| 2026-04-24 19:42 | 51.90493 | -5.92584 | 37694 ft | 459 kts | 106° |
| 2026-04-24 19:43 | 51.89713 | -5.87570 | 38093 ft | 457 kts | 106° |
| 2026-04-24 19:43 | 51.88934 | -5.82573 | 38397 ft | 457 kts | 106° |
| 2026-04-24 19:43 | 51.88152 | -5.77561 | 38625 ft | 459 kts | 106° |
| 2026-04-24 19:43 | 51.87377 | -5.72610 | 38823 ft | 460 kts | 107° |
| 2026-04-24 19:44 | 51.86586 | -5.67577 | 39032 ft | 462 kts | 107° |
| 2026-04-24 19:44 | 51.85791 | -5.62528 | 39212 ft | 463 kts | 107° |
| 2026-04-24 19:44 | 51.84990 | -5.57460 | 39202 ft | 464 kts | 107° |
| 2026-04-24 19:45 | 51.83382 | -5.47328 | 39206 ft | 465 kts | 107° |
| 2026-04-24 19:45 | 51.81757 | -5.37169 | 39219 ft | 465 kts | 107° |
| 2026-04-24 19:46 | 51.80162 | -5.27079 | 39222 ft | 466 kts | 105° |
| 2026-04-24 19:46 | 51.78913 | -5.16779 | 39221 ft | 467 kts | 102° |
| 2026-04-24 19:47 | 51.77715 | -5.06439 | 39225 ft | 467 kts | 102° |
| 2026-04-24 19:47 | 51.76502 | -4.96108 | 39223 ft | 468 kts | 103° |
| 2026-04-24 19:48 | 51.75272 | -4.85743 | 39223 ft | 469 kts | 103° |
| 2026-04-24 19:48 | 51.73406 | -4.70195 | 39221 ft | 470 kts | 103° |
| 2026-04-24 19:49 | 51.70888 | -4.49503 | 39222 ft | 471 kts | 103° |
| 2026-04-24 19:50 | 51.68317 | -4.28703 | 39224 ft | 472 kts | 103° |
| 2026-04-24 19:51 | 51.66363 | -4.13111 | 39221 ft | 473 kts | 103° |
| 2026-04-24 19:52 | 51.64388 | -3.97571 | 39225 ft | 473 kts | 103° |
| 2026-04-24 19:52 | 51.63053 | -3.87160 | 39228 ft | 473 kts | 103° |
| 2026-04-24 19:53 | 51.61715 | -3.76744 | 39230 ft | 473 kts | 103° |
| 2026-04-24 19:54 | 51.59739 | -3.61185 | 39237 ft | 475 kts | 100° |
| 2026-04-24 19:54 | 51.58958 | -3.50618 | 39238 ft | 475 kts | 96° |
| 2026-04-24 19:55 | 51.58459 | -3.41724 | 39241 ft | 476 kts | 96° |
| 2026-04-24 19:55 | 51.57753 | -3.29396 | 39248 ft | 475 kts | 96° |
| 2026-04-24 19:56 | 51.57128 | -3.18779 | 39247 ft | 476 kts | 96° |
| 2026-04-24 19:56 | 51.56489 | -3.08172 | 39249 ft | 476 kts | 96° |
| 2026-04-24 19:57 | 51.55840 | -2.97572 | 39249 ft | 477 kts | 96° |
| 2026-04-24 19:57 | 51.55178 | -2.86923 | 39249 ft | 477 kts | 96° |
| 2026-04-24 19:58 | 51.54488 | -2.76278 | 39249 ft | 478 kts | 97° |
| 2026-04-24 19:58 | 51.53776 | -2.65614 | 39249 ft | 479 kts | 97° |
| 2026-04-24 19:59 | 51.53057 | -2.55020 | 39249 ft | 480 kts | 97° |
| 2026-04-24 19:59 | 51.52321 | -2.44345 | 39249 ft | 480 kts | 97° |
| 2026-04-24 20:00 | 51.51598 | -2.33650 | 39248 ft | 481 kts | 96° |
| 2026-04-24 20:00 | 51.50870 | -2.22929 | 39249 ft | 481 kts | 97° |
| 2026-04-24 20:01 | 51.50129 | -2.12284 | 39249 ft | 481 kts | 97° |
| 2026-04-24 20:01 | 51.49371 | -2.01583 | 39248 ft | 481 kts | 97° |
| 2026-04-24 20:02 | 51.48740 | -1.92696 | 39241 ft | 482 kts | 97° |
| 2026-04-24 20:02 | 51.47838 | -1.80199 | 39239 ft | 482 kts | 97° |
| 2026-04-24 20:03 | 51.47030 | -1.69482 | 39240 ft | 482 kts | 99° |
| 2026-04-24 20:03 | 51.45753 | -1.58895 | 39249 ft | 482 kts | 103° |
| 2026-04-24 20:04 | 51.44299 | -1.48390 | 39248 ft | 482 kts | 103° |
| 2026-04-24 20:04 | 51.42851 | -1.37878 | 39250 ft | 482 kts | 103° |
| 2026-04-24 20:05 | 51.41393 | -1.27373 | 39250 ft | 481 kts | 103° |
| 2026-04-24 20:05 | 51.40006 | -1.16950 | 39249 ft | 481 kts | 100° |
| 2026-04-24 20:06 | 51.39205 | -1.06290 | 39250 ft | 481 kts | 95° |
| 2026-04-24 20:06 | 51.38666 | -0.95570 | 39249 ft | 481 kts | 95° |
| 2026-04-24 20:07 | 51.38213 | -0.86678 | 39258 ft | 481 kts | 95° |
| 2026-04-24 20:07 | 51.37556 | -0.74230 | 39269 ft | 481 kts | 95° |
| 2026-04-24 20:08 | 51.36979 | -0.63553 | 39278 ft | 481 kts | 95° |
| 2026-04-24 20:08 | 51.36391 | -0.52867 | 39272 ft | 481 kts | 95° |
| 2026-04-24 20:09 | 51.35792 | -0.42192 | 39281 ft | 481 kts | 96° |
| 2026-04-24 20:09 | 51.35184 | -0.31513 | 39273 ft | 481 kts | 96° |
| 2026-04-24 20:10 | 51.34564 | -0.20854 | 39273 ft | 481 kts | 96° |
| 2026-04-24 20:10 | 51.33936 | -0.10235 | 39274 ft | 481 kts | 96° |
| 2026-04-24 20:11 | 51.33288 | 0.00470 | 39274 ft | 480 kts | 97° |
| 2026-04-24 20:11 | 51.32225 | 0.10992 | 39280 ft | 484 kts | 101° |
| 2026-04-24 20:12 | 51.30916 | 0.21593 | 39281 ft | 485 kts | 102° |
| 2026-04-24 20:12 | 51.29602 | 0.32191 | 39275 ft | 486 kts | 102° |
| 2026-04-24 20:13 | 51.28295 | 0.42787 | 39278 ft | 485 kts | 102° |
| 2026-04-24 20:13 | 51.26974 | 0.53358 | 39289 ft | 484 kts | 102° |
| 2026-04-24 20:14 | 51.25640 | 0.63927 | 39279 ft | 484 kts | 102° |
| 2026-04-24 20:14 | 51.24303 | 0.74411 | 39292 ft | 483 kts | 102° |
| 2026-04-24 20:15 | 51.22960 | 0.84948 | 39293 ft | 483 kts | 102° |
| 2026-04-24 20:15 | 51.21600 | 0.95459 | 39288 ft | 483 kts | 102° |
| 2026-04-24 20:16 | 51.20235 | 1.05968 | 39274 ft | 482 kts | 102° |
| 2026-04-24 20:16 | 51.18875 | 1.16385 | 39280 ft | 482 kts | 102° |
| 2026-04-24 20:17 | 51.17489 | 1.26860 | 39277 ft | 482 kts | 102° |
| 2026-04-24 20:17 | 51.15952 | 1.42741 | 39275 ft | 483 kts | 95° |
| 2026-04-24 20:18 | 51.15445 | 1.53438 | 39273 ft | 483 kts | 94° |
| 2026-04-24 20:18 | 51.14934 | 1.64132 | 39279 ft | 483 kts | 95° |
| 2026-04-24 20:19 | 51.14407 | 1.74749 | 39275 ft | 483 kts | 95° |
| 2026-04-24 20:19 | 51.13862 | 1.85432 | 39271 ft | 483 kts | 95° |
| 2026-04-24 20:20 | 51.13306 | 1.96117 | 39279 ft | 483 kts | 95° |
| 2026-04-24 20:20 | 51.12765 | 2.06804 | 39281 ft | 483 kts | 95° |
| 2026-04-24 20:21 | 51.12242 | 2.17488 | 39281 ft | 483 kts | 95° |
| 2026-04-24 20:21 | 51.11704 | 2.28090 | 39273 ft | 483 kts | 95° |
| 2026-04-24 20:22 | 51.11147 | 2.38771 | 39281 ft | 482 kts | 95° |
| 2026-04-24 20:22 | 51.10579 | 2.49427 | 39271 ft | 482 kts | 95° |
| 2026-04-24 20:23 | 51.09992 | 2.60105 | 39271 ft | 482 kts | 96° |
| 2026-04-24 20:23 | 51.08938 | 2.70576 | 39270 ft | 481 kts | 103° |
| 2026-04-24 20:24 | 51.07372 | 2.80945 | 39283 ft | 481 kts | 105° |
| 2026-04-24 20:24 | 51.05769 | 2.91301 | 39271 ft | 481 kts | 105° |
| 2026-04-24 20:25 | 51.04166 | 3.01637 | 39280 ft | 481 kts | 105° |
| 2026-04-24 20:25 | 51.02569 | 3.11892 | 39279 ft | 480 kts | 105° |
| 2026-04-24 20:26 | 51.00952 | 3.22215 | 39271 ft | 480 kts | 105° |
| 2026-04-24 20:26 | 50.99329 | 3.32513 | 39268 ft | 480 kts | 105° |
| 2026-04-24 20:27 | 50.97695 | 3.42813 | 39266 ft | 480 kts | 105° |
| 2026-04-24 20:27 | 50.96054 | 3.53092 | 39257 ft | 479 kts | 105° |
| 2026-04-24 20:28 | 50.94417 | 3.63281 | 39252 ft | 479 kts | 105° |
| 2026-04-24 20:28 | 50.92757 | 3.73545 | 39250 ft | 479 kts | 106° |
| 2026-04-24 20:29 | 50.91089 | 3.83784 | 39249 ft | 479 kts | 106° |
| 2026-04-24 20:29 | 50.89413 | 3.94002 | 39249 ft | 478 kts | 106° |
| 2026-04-24 20:30 | 50.87617 | 4.04097 | 39241 ft | 477 kts | 110° |
| 2026-04-24 20:30 | 50.85307 | 4.13969 | 39241 ft | 477 kts | 113° |
| 2026-04-24 20:31 | 50.83322 | 4.22140 | 39239 ft | 477 kts | 113° |
| 2026-04-24 20:31 | 50.80933 | 4.31947 | 39246 ft | 477 kts | 113° |
| 2026-04-24 20:32 | 50.78536 | 4.41762 | 39249 ft | 477 kts | 113° |
| 2026-04-24 20:32 | 50.76135 | 4.51555 | 39244 ft | 477 kts | 113° |
| 2026-04-24 20:33 | 50.73736 | 4.61293 | 39240 ft | 477 kts | 113° |
| 2026-04-24 20:33 | 50.71321 | 4.71051 | 39240 ft | 477 kts | 114° |
| 2026-04-24 20:34 | 50.68888 | 4.80825 | 39236 ft | 477 kts | 114° |
| 2026-04-24 20:34 | 50.66468 | 4.90586 | 39230 ft | 478 kts | 112° |
| 2026-04-24 20:35 | 50.64390 | 5.00477 | 39229 ft | 479 kts | 110° |
| 2026-04-24 20:35 | 50.62340 | 5.10497 | 39227 ft | 479 kts | 110° |
| 2026-04-24 20:36 | 50.60286 | 5.20454 | 39221 ft | 479 kts | 110° |
| 2026-04-24 20:36 | 50.58208 | 5.30450 | 39219 ft | 480 kts | 110° |
| 2026-04-24 20:37 | 50.56118 | 5.40452 | 39223 ft | 480 kts | 110° |
| 2026-04-24 20:37 | 50.54018 | 5.50438 | 39220 ft | 480 kts | 111° |
| 2026-04-24 20:38 | 50.51912 | 5.60402 | 39220 ft | 479 kts | 111° |
| 2026-04-24 20:38 | 50.49749 | 5.70338 | 39220 ft | 479 kts | 112° |
| 2026-04-24 20:39 | 50.47541 | 5.80166 | 39221 ft | 479 kts | 112° |
| 2026-04-24 20:39 | 50.45311 | 5.90038 | 39219 ft | 479 kts | 112° |
| 2026-04-24 20:40 | 50.43078 | 5.99889 | 39213 ft | 479 kts | 112° |
| 2026-04-24 20:40 | 50.40834 | 6.09749 | 39216 ft | 479 kts | 112° |
| 2026-04-24 20:41 | 50.38573 | 6.19639 | 39209 ft | 479 kts | 112° |
| 2026-04-24 20:41 | 50.36311 | 6.29484 | 39210 ft | 480 kts | 112° |
| 2026-04-24 20:42 | 50.34051 | 6.39279 | 39207 ft | 480 kts | 112° |
| 2026-04-24 20:42 | 50.31768 | 6.49127 | 39203 ft | 480 kts | 112° |
| 2026-04-24 20:43 | 50.29476 | 6.58967 | 39205 ft | 480 kts | 112° |
| 2026-04-24 20:43 | 50.27176 | 6.68800 | 39201 ft | 481 kts | 112° |
| 2026-04-24 20:44 | 50.24880 | 6.78569 | 39202 ft | 481 kts | 112° |
| 2026-04-24 20:44 | 50.22557 | 6.88410 | 39189 ft | 482 kts | 112° |
| 2026-04-24 20:45 | 50.20223 | 6.98254 | 39193 ft | 483 kts | 112° |
| 2026-04-24 20:45 | 50.17879 | 7.08093 | 39189 ft | 483 kts | 112° |
| 2026-04-24 20:46 | 50.15526 | 7.17924 | 39199 ft | 483 kts | 112° |
| 2026-04-24 20:46 | 50.13160 | 7.27766 | 39196 ft | 483 kts | 112° |
| 2026-04-24 20:47 | 50.10790 | 7.37582 | 39193 ft | 484 kts | 113° |
| 2026-04-24 20:47 | 50.08423 | 7.47343 | 39198 ft | 484 kts | 113° |
| 2026-04-24 20:48 | 50.06021 | 7.57199 | 39196 ft | 484 kts | 113° |
| 2026-04-24 20:48 | 50.03621 | 7.67008 | 39189 ft | 484 kts | 113° |
| 2026-04-24 20:49 | 50.01212 | 7.76804 | 39182 ft | 484 kts | 113° |
| 2026-04-24 20:49 | 49.98797 | 7.86578 | 39182 ft | 484 kts | 113° |
| 2026-04-24 20:50 | 49.96373 | 7.96349 | 39181 ft | 484 kts | 113° |
| 2026-04-24 20:50 | 49.93953 | 8.06052 | 39177 ft | 484 kts | 114° |
| 2026-04-24 20:51 | 49.91509 | 8.15805 | 39175 ft | 484 kts | 114° |
| 2026-04-24 20:51 | 49.89057 | 8.25536 | 39176 ft | 483 kts | 114° |
| 2026-04-24 20:52 | 49.86488 | 8.35161 | 39175 ft | 482 kts | 118° |
| 2026-04-24 20:52 | 49.83288 | 8.44251 | 39174 ft | 479 kts | 125° |
| 2026-04-24 20:53 | 49.79456 | 8.52583 | 39169 ft | 476 kts | 131° |
| 2026-04-24 20:53 | 49.75306 | 8.60590 | 39168 ft | 476 kts | 131° |
| 2026-04-24 20:54 | 49.71159 | 8.68584 | 39166 ft | 476 kts | 131° |
| 2026-04-24 20:54 | 49.67004 | 8.76594 | 39167 ft | 476 kts | 131° |
| 2026-04-24 20:55 | 49.62855 | 8.84574 | 39166 ft | 476 kts | 131° |
| 2026-04-24 20:55 | 49.58684 | 8.92569 | 39166 ft | 477 kts | 131° |
| 2026-04-24 20:56 | 49.54523 | 9.00518 | 39166 ft | 477 kts | 131° |
| 2026-04-24 20:56 | 49.50344 | 9.08476 | 39165 ft | 477 kts | 131° |
| 2026-04-24 20:57 | 49.46285 | 9.16490 | 39166 ft | 479 kts | 127° |
| 2026-04-24 20:57 | 49.42593 | 9.25065 | 39166 ft | 480 kts | 125° |
| 2026-04-24 20:58 | 49.38936 | 9.33671 | 39166 ft | 480 kts | 125° |
| 2026-04-24 20:58 | 49.35266 | 9.42261 | 39167 ft | 480 kts | 125° |
| 2026-04-24 20:59 | 49.31589 | 9.50833 | 39165 ft | 480 kts | 125° |
| 2026-04-24 20:59 | 49.27906 | 9.59389 | 39165 ft | 481 kts | 125° |
| 2026-04-24 21:00 | 49.24235 | 9.67888 | 39167 ft | 481 kts | 125° |
| 2026-04-24 21:00 | 49.20531 | 9.76433 | 39166 ft | 481 kts | 125° |
| 2026-04-24 21:01 | 49.16823 | 9.84956 | 39167 ft | 480 kts | 125° |
| 2026-04-24 21:01 | 49.13107 | 9.93466 | 39167 ft | 480 kts | 125° |
| 2026-04-24 21:02 | 49.09417 | 10.01892 | 39165 ft | 480 kts | 126° |
| 2026-04-24 21:02 | 49.05374 | 10.10035 | 39166 ft | 480 kts | 131° |
| 2026-04-24 21:03 | 49.00782 | 10.17406 | 39166 ft | 479 kts | 136° |
| 2026-04-24 21:03 | 48.96050 | 10.24560 | 39166 ft | 479 kts | 136° |
| 2026-04-24 21:04 | 48.91324 | 10.31699 | 39166 ft | 478 kts | 136° |
| 2026-04-24 21:04 | 48.86632 | 10.38778 | 39166 ft | 478 kts | 136° |
| 2026-04-24 21:05 | 48.81903 | 10.45899 | 39166 ft | 478 kts | 136° |
| 2026-04-24 21:05 | 48.77166 | 10.53008 | 39166 ft | 477 kts | 136° |
| 2026-04-24 21:06 | 48.72436 | 10.60087 | 39166 ft | 477 kts | 136° |
| 2026-04-24 21:06 | 48.67727 | 10.67110 | 39162 ft | 477 kts | 136° |
| 2026-04-24 21:07 | 48.62972 | 10.74189 | 39157 ft | 477 kts | 135° |
| 2026-04-24 21:07 | 48.58560 | 10.81618 | 39157 ft | 477 kts | 129° |
| 2026-04-24 21:08 | 48.54696 | 10.89806 | 39158 ft | 477 kts | 123° |
| 2026-04-24 21:08 | 48.51063 | 10.98155 | 39164 ft | 478 kts | 123° |
| 2026-04-24 21:09 | 48.47404 | 11.06523 | 39167 ft | 478 kts | 123° |
| 2026-04-24 21:09 | 48.43729 | 11.14887 | 39167 ft | 478 kts | 123° |
| 2026-04-24 21:10 | 48.40049 | 11.23230 | 39161 ft | 477 kts | 123° |
| 2026-04-24 21:10 | 48.36354 | 11.31579 | 39160 ft | 477 kts | 123° |
| 2026-04-24 21:11 | 48.32664 | 11.39891 | 39155 ft | 477 kts | 123° |
| 2026-04-24 21:11 | 48.28967 | 11.48195 | 39163 ft | 477 kts | 123° |
| 2026-04-24 21:12 | 48.25882 | 11.55103 | 39164 ft | 476 kts | 123° |
| 2026-04-24 21:12 | 48.21552 | 11.64772 | 39167 ft | 476 kts | 123° |
| 2026-04-24 21:13 | 48.17852 | 11.73008 | 39168 ft | 477 kts | 123° |
| 2026-04-24 21:13 | 48.14129 | 11.81286 | 39167 ft | 479 kts | 124° |
| 2026-04-24 21:14 | 48.10379 | 11.89569 | 39167 ft | 479 kts | 124° |
| 2026-04-24 21:14 | 48.06630 | 11.97831 | 39167 ft | 479 kts | 124° |
| 2026-04-24 21:15 | 48.02877 | 12.06082 | 39167 ft | 479 kts | 124° |
| 2026-04-24 21:15 | 47.99123 | 12.14308 | 39167 ft | 479 kts | 124° |
| 2026-04-24 21:16 | 47.95387 | 12.22471 | 39166 ft | 479 kts | 124° |
| 2026-04-24 21:16 | 47.91614 | 12.30688 | 39166 ft | 479 kts | 124° |
| 2026-04-24 21:17 | 47.87845 | 12.38871 | 39165 ft | 478 kts | 124° |
| 2026-04-24 21:17 | 47.84710 | 12.45660 | 39166 ft | 478 kts | 124° |
| 2026-04-24 21:18 | 47.80305 | 12.55165 | 39167 ft | 478 kts | 124° |
| 2026-04-24 21:18 | 47.76526 | 12.63292 | 39166 ft | 477 kts | 124° |
| 2026-04-24 21:19 | 47.72740 | 12.71405 | 39168 ft | 476 kts | 124° |
| 2026-04-24 21:19 | 47.69537 | 12.78077 | 39164 ft | 476 kts | 127° |
| 2026-04-24 21:20 | 47.62064 | 12.90124 | 39167 ft | 477 kts | 134° |
| 2026-04-24 21:21 | 47.58144 | 12.95893 | 39167 ft | 477 kts | 134° |
| 2026-04-24 21:21 | 47.53436 | 13.02820 | 39165 ft | 477 kts | 134° |
| 2026-04-24 21:22 | 47.48741 | 13.09716 | 38643 ft | 475 kts | 134° |
| 2026-04-24 21:22 | 47.46374 | 13.13187 | 37732 ft | 483 kts | 134° |
| 2026-04-24 21:22 | 47.43971 | 13.16704 | 36939 ft | 487 kts | 134° |
| 2026-04-24 21:22 | 47.41559 | 13.20227 | 36353 ft | 486 kts | 134° |
| 2026-04-24 21:23 | 47.39156 | 13.23731 | 35779 ft | 484 kts | 134° |
| 2026-04-24 21:23 | 47.36784 | 13.27190 | 35079 ft | 486 kts | 135° |
| 2026-04-24 21:23 | 47.34275 | 13.30572 | 34286 ft | 489 kts | 140° |
| 2026-04-24 21:23 | 47.31543 | 13.33634 | 33458 ft | 493 kts | 145° |
| 2026-04-24 21:24 | 47.28624 | 13.36309 | 32664 ft | 496 kts | 150° |
| 2026-04-24 21:24 | 47.25585 | 13.38738 | 31915 ft | 497 kts | 152° |
| 2026-04-24 21:24 | 47.22523 | 13.41126 | 31144 ft | 498 kts | 152° |
| 2026-04-24 21:24 | 47.19455 | 13.43505 | 30336 ft | 499 kts | 152° |
| 2026-04-24 21:25 | 47.16410 | 13.45867 | 29527 ft | 500 kts | 152° |
| 2026-04-24 21:25 | 47.13322 | 13.48264 | 28671 ft | 501 kts | 152° |
| 2026-04-24 21:25 | 47.10244 | 13.50655 | 28071 ft | 497 kts | 152° |
| 2026-04-24 21:25 | 47.07201 | 13.53019 | 27528 ft | 491 kts | 152° |
| 2026-04-24 21:26 | 47.04187 | 13.55360 | 26919 ft | 487 kts | 152° |
| 2026-04-24 21:26 | 47.01203 | 13.57675 | 26303 ft | 483 kts | 152° |
| 2026-04-24 21:26 | 46.98235 | 13.59976 | 25689 ft | 480 kts | 152° |
| 2026-04-24 21:26 | 46.95335 | 13.62222 | 25108 ft | 475 kts | 152° |
| 2026-04-24 21:27 | 46.92413 | 13.64482 | 24478 ft | 472 kts | 152° |
| 2026-04-24 21:27 | 46.89514 | 13.66722 | 23855 ft | 469 kts | 152° |
| 2026-04-24 21:27 | 46.86637 | 13.68941 | 23253 ft | 465 kts | 152° |
| 2026-04-24 21:27 | 46.83788 | 13.71136 | 22685 ft | 461 kts | 152° |
| 2026-04-24 21:28 | 46.80967 | 13.73306 | 22067 ft | 457 kts | 152° |
| 2026-04-24 21:28 | 46.78162 | 13.75463 | 21487 ft | 453 kts | 152° |
| 2026-04-24 21:28 | 46.75383 | 13.77595 | 20898 ft | 449 kts | 152° |
| 2026-04-24 21:28 | 46.72618 | 13.79716 | 20318 ft | 445 kts | 152° |
| 2026-04-24 21:29 | 46.69923 | 13.81779 | 19726 ft | 442 kts | 152° |
| 2026-04-24 21:29 | 46.67213 | 13.83852 | 19154 ft | 438 kts | 152° |
| 2026-04-24 21:29 | 46.64526 | 13.85905 | 18566 ft | 434 kts | 152° |
| 2026-04-24 21:29 | 46.61859 | 13.87941 | 17988 ft | 431 kts | 152° |
| 2026-04-24 21:30 | 46.59214 | 13.89957 | 17427 ft | 427 kts | 152° |
| 2026-04-24 21:30 | 46.56575 | 13.91968 | 16801 ft | 425 kts | 152° |
| 2026-04-24 21:30 | 46.53967 | 13.93952 | 16252 ft | 421 kts | 152° |
| 2026-04-24 21:30 | 46.51380 | 13.95918 | 15764 ft | 416 kts | 152° |
| 2026-04-24 21:31 | 46.48828 | 13.97855 | 15324 ft | 411 kts | 152° |
| 2026-04-24 21:31 | 46.46309 | 13.99765 | 14853 ft | 407 kts | 152° |
| 2026-04-24 21:31 | 46.43808 | 14.01660 | 14406 ft | 403 kts | 152° |
| 2026-04-24 21:31 | 46.41368 | 14.03506 | 13962 ft | 399 kts | 152° |
| 2026-04-24 21:32 | 46.38912 | 14.05363 | 13504 ft | 396 kts | 152° |
| 2026-04-24 21:32 | 46.36482 | 14.07197 | 13060 ft | 392 kts | 152° |
| 2026-04-24 21:32 | 46.34072 | 14.09015 | 12627 ft | 388 kts | 152° |
| 2026-04-24 21:32 | 46.31690 | 14.10809 | 12197 ft | 383 kts | 152° |
| 2026-04-24 21:33 | 46.29334 | 14.12583 | 11770 ft | 380 kts | 152° |
| 2026-04-24 21:33 | 46.27068 | 14.14525 | 11334 ft | 375 kts | 143° |
| 2026-04-24 21:33 | 46.25139 | 14.17019 | 10918 ft | 370 kts | 131° |
| 2026-04-24 21:33 | 46.23535 | 14.19913 | 10625 ft | 361 kts | 126° |
| 2026-04-24 21:34 | 46.22087 | 14.22752 | 10534 ft | 347 kts | 125° |
| 2026-04-24 21:34 | 46.20689 | 14.25516 | 10441 ft | 333 kts | 125° |
| 2026-04-24 21:34 | 46.19341 | 14.28164 | 10297 ft | 322 kts | 125° |
| 2026-04-24 21:34 | 46.18034 | 14.30716 | 10207 ft | 309 kts | 125° |
| 2026-04-24 21:35 | 46.16778 | 14.33155 | 10127 ft | 297 kts | 126° |
| 2026-04-24 21:35 | 46.15559 | 14.35513 | 10022 ft | 290 kts | 126° |
| 2026-04-24 21:35 | 46.14350 | 14.37849 | 9682 ft | 290 kts | 126° |
| 2026-04-24 21:35 | 46.13145 | 14.40175 | 9366 ft | 288 kts | 126° |
| 2026-04-24 21:36 | 46.11948 | 14.42481 | 9069 ft | 286 kts | 126° |
| 2026-04-24 21:36 | 46.10772 | 14.44743 | 8781 ft | 284 kts | 127° |
| 2026-04-24 21:36 | 46.09587 | 14.47021 | 8488 ft | 283 kts | 127° |
| 2026-04-24 21:36 | 46.08432 | 14.49305 | 8183 ft | 281 kts | 124° |
| 2026-04-24 21:37 | 46.07328 | 14.51625 | 7905 ft | 279 kts | 124° |
| 2026-04-24 21:37 | 46.06235 | 14.53934 | 7606 ft | 278 kts | 124° |
| 2026-04-24 21:37 | 46.05144 | 14.56235 | 7316 ft | 277 kts | 124° |
| 2026-04-24 21:37 | 46.04059 | 14.58521 | 7027 ft | 275 kts | 124° |
| 2026-04-24 21:38 | 46.02980 | 14.60791 | 6736 ft | 274 kts | 124° |
| 2026-04-24 21:38 | 46.01904 | 14.63052 | 6464 ft | 271 kts | 124° |
| 2026-04-24 21:38 | 46.00946 | 14.65315 | 6240 ft | 266 kts | 110° |
| 2026-04-24 21:38 | 46.00758 | 14.67920 | 5937 ft | 262 kts | 78° |
| 2026-04-24 21:39 | 46.01470 | 14.70266 | 5681 ft | 255 kts | 49° |
| 2026-04-24 21:39 | 46.02791 | 14.71906 | 5490 ft | 247 kts | 33° |
| 2026-04-24 21:39 | 46.04185 | 14.73296 | 5355 ft | 239 kts | 33° |
| 2026-04-24 21:39 | 46.05607 | 14.74361 | 5226 ft | 230 kts | 9° |
| 2026-04-24 21:40 | 46.07176 | 14.74217 | 5137 ft | 228 kts | 336° |
| 2026-04-24 21:40 | 46.08453 | 14.72921 | 5028 ft | 224 kts | 311° |
| 2026-04-24 21:40 | 46.09425 | 14.71217 | 4938 ft | 215 kts | 306° |
| 2026-04-24 21:40 | 46.10286 | 14.69532 | 4862 ft | 202 kts | 305° |
| 2026-04-24 21:41 | 46.11105 | 14.67893 | 4594 ft | 199 kts | 304° |
| 2026-04-24 21:41 | 46.11912 | 14.66286 | 4330 ft | 197 kts | 305° |
| 2026-04-24 21:41 | 46.12703 | 14.64721 | 4079 ft | 194 kts | 305° |
| 2026-04-24 21:41 | 46.13498 | 14.63156 | 3819 ft | 192 kts | 305° |
| 2026-04-24 21:42 | 46.14281 | 14.61620 | 3559 ft | 187 kts | 305° |
| 2026-04-24 21:42 | 46.15041 | 14.60129 | 3320 ft | 182 kts | 305° |
| 2026-04-24 21:42 | 46.15779 | 14.58680 | 3088 ft | 176 kts | 306° |
| 2026-04-24 21:42 | 46.16482 | 14.57304 | 2848 ft | 167 kts | 306° |
| 2026-04-24 21:43 | 46.17149 | 14.55996 | 2620 ft | 157 kts | 306° |
| 2026-04-24 21:43 | 46.17793 | 14.54732 | 2427 ft | 156 kts | 306° |
| 2026-04-24 21:43 | 46.18433 | 14.53475 | 2232 ft | 155 kts | 306° |
| 2026-04-24 21:43 | 46.19071 | 14.52227 | 2035 ft | 154 kts | 306° |
| 2026-04-24 21:44 | 46.19707 | 14.50981 | 1815 ft | 153 kts | 306° |
| 2026-04-24 21:44 | 46.20328 | 14.49760 | 1622 ft | 152 kts | 305° |
| 2026-04-24 21:44 | 46.20951 | 14.48525 | 1421 ft | 152 kts | 306° |
| 2026-04-24 21:44 | 46.21579 | 14.47303 | 1231 ft | 150 kts | 306° |
| 2026-04-24 21:45 | 46.22136 | 14.46215 | 1249 ft | 110 kts | 307° |
| 2026-04-24 21:45 | 46.22445 | 14.45614 | 1265 ft | 36 kts | 308° |
| 2026-04-24 21:45 | 46.22582 | 14.45430 | 1267 ft | 19 kts | 325° |
| 2026-04-24 21:45 | 46.22667 | 14.45363 | 1266 ft | 9 kts | 338° |
| 2026-04-24 21:46 | 46.22720 | 14.45341 | 1266 ft | 7 kts | 346° |
| 2026-04-24 21:46 | 46.22770 | 14.45326 | 1274 ft | 7 kts | 351° |
| 2026-04-24 21:46 | 46.22818 | 14.45321 | 1267 ft | 6 kts | 1° |
| 2026-04-24 21:46 | 46.22854 | 14.45330 | 1267 ft | 5 kts | 19° |
| 2026-04-24 21:47 | 46.22885 | 14.45357 | 1272 ft | 5 kts | 39° |
| 2026-04-24 21:47 | 46.22902 | 14.45376 | 1270 ft | 3 kts | 38° |
| 2026-04-24 21:47 | 46.22923 | 14.45396 | 1267 ft | 3 kts | 20° |
| 2026-04-24 21:47 | 46.22945 | 14.45407 | 1270 ft | 4 kts | 22° |
| 2026-04-24 21:48 | 46.22963 | 14.45424 | 1267 ft | 0 kts | 37° |
| 2026-04-24 21:48 | 46.22970 | 14.45432 | 1267 ft | 3 kts | 35° |
| 2026-04-24 21:48 | 46.22986 | 14.45448 | 1272 ft | 1 kts | 36° |
| 2026-04-24 21:48 | 46.22987 | 14.45449 | 1275 ft | 0 kts | 36° |
| 2026-04-24 21:49 | 46.22992 | 14.45455 | 1267 ft | 0 kts | 37° |